sensor_id;sensor_type;location;lat;lon;timestamp;pressure;altitude;pressure_sealevel;temperature;humidity
35443;BME280;21561;55.654;37.592;2023-04-27T00:00:47;98589.34;;;9.98;78.71
35443;BME280;21561;55.654;37.592;2023-04-27T00:03:13;98591.84;;;10.01;77.85
35443;BME280;21561;55.654;37.592;2023-04-27T00:05:41;98583.19;;;10.02;74.96
35443;BME280;21561;55.654;37.592;2023-04-27T00:08:09;98596.19;;;10.01;74.71
35443;BME280;21561;55.654;37.592;2023-04-27T00:10:36;98594.53;;;9.98;73.59
35443;BME280;21561;55.654;37.592;2023-04-27T00:13:03;98590.16;;;10.00;73.31
35443;BME280;21561;55.654;37.592;2023-04-27T00:15:30;98600.34;;;10.08;72.27
35443;BME280;21561;55.654;37.592;2023-04-27T00:17:56;98600.38;;;10.06;72.78
35443;BME280;21561;55.654;37.592;2023-04-27T00:20:23;98596.97;;;10.04;72.19
35443;BME280;21561;55.654;37.592;2023-04-27T00:22:50;98600.38;;;10.06;72.81
35443;BME280;21561;55.654;37.592;2023-04-27T00:25:17;98590.94;;;10.04;72.95
35443;BME280;21561;55.654;37.592;2023-04-27T00:27:43;98595.34;;;10.00;72.86
35443;BME280;21561;55.654;37.592;2023-04-27T00:30:10;98593.72;;;9.96;72.95
35443;BME280;21561;55.654;37.592;2023-04-27T00:32:37;98596.38;;;9.91;75.55
35443;BME280;21561;55.654;37.592;2023-04-27T00:35:03;98590.22;;;9.97;74.77
35443;BME280;21561;55.654;37.592;2023-04-27T00:37:30;98590.28;;;9.94;74.71
35443;BME280;21561;55.654;37.592;2023-04-27T00:39:57;98592.25;;;9.83;74.86
35443;BME280;21561;55.654;37.592;2023-04-27T00:42:24;98591.59;;;9.73;74.62
35443;BME280;21561;55.654;37.592;2023-04-27T00:44:50;98596.19;;;9.60;75.23
35443;BME280;21561;55.654;37.592;2023-04-27T00:47:17;98596.41;;;9.48;75.80
35443;BME280;21561;55.654;37.592;2023-04-27T00:49:44;98588.88;;;9.35;76.32
35443;BME280;21561;55.654;37.592;2023-04-27T00:52:11;98598.47;;;9.30;76.86
35443;BME280;21561;55.654;37.592;2023-04-27T00:54:37;98598.59;;;9.24;77.81
35443;BME280;21561;55.654;37.592;2023-04-27T00:57:04;98597.00;;;9.17;78.45
35443;BME280;21561;55.654;37.592;2023-04-27T00:59:31;98602.28;;;9.11;78.83
35443;BME280;21561;55.654;37.592;2023-04-27T01:01:58;98598.91;;;9.06;78.92
35443;BME280;21561;55.654;37.592;2023-04-27T01:04:25;98600.63;;;9.07;77.52
35443;BME280;21561;55.654;37.592;2023-04-27T01:06:52;98605.69;;;9.13;77.66
35443;BME280;21561;55.654;37.592;2023-04-27T01:09:19;98605.63;;;9.16;77.63
35443;BME280;21561;55.654;37.592;2023-04-27T01:11:46;98602.09;;;9.20;77.48
35443;BME280;21561;55.654;37.592;2023-04-27T01:14:13;98603.59;;;9.33;77.60
35443;BME280;21561;55.654;37.592;2023-04-27T01:16:40;98604.94;;;9.53;79.88
35443;BME280;21561;55.654;37.592;2023-04-27T01:19:06;98598.78;;;9.59;78.49
35443;BME280;21561;55.654;37.592;2023-04-27T01:21:34;98596.22;;;9.57;80.25
35443;BME280;21561;55.654;37.592;2023-04-27T01:24:02;98596.03;;;9.66;77.19
35443;BME280;21561;55.654;37.592;2023-04-27T01:26:29;98589.78;;;9.77;76.47
35443;BME280;21561;55.654;37.592;2023-04-27T01:28:55;98594.94;;;9.78;76.35
35443;BME280;21561;55.654;37.592;2023-04-27T01:31:22;98589.84;;;9.73;75.91
35443;BME280;21561;55.654;37.592;2023-04-27T01:33:49;98588.69;;;9.87;77.43
35443;BME280;21561;55.654;37.592;2023-04-27T01:36:16;98585.22;;;10.28;73.97
35443;BME280;21561;55.654;37.592;2023-04-27T01:38:42;98586.94;;;10.67;72.87
35443;BME280;21561;55.654;37.592;2023-04-27T01:41:09;98583.69;;;10.59;72.28
35443;BME280;21561;55.654;37.592;2023-04-27T01:43:36;98585.22;;;10.28;72.72
35443;BME280;21561;55.654;37.592;2023-04-27T01:46:12;98585.84;;;9.99;73.50
35443;BME280;21561;55.654;37.592;2023-04-27T01:48:39;98592.44;;;9.73;74.66
35443;BME280;21561;55.654;37.592;2023-04-27T01:51:06;98598.09;;;9.49;76.39
35443;BME280;21561;55.654;37.592;2023-04-27T01:53:33;98594.22;;;9.28;77.27
35443;BME280;21561;55.654;37.592;2023-04-27T01:55:59;98599.66;;;9.12;78.25
35443;BME280;21561;55.654;37.592;2023-04-27T01:58:26;98605.03;;;9.00;79.05
35443;BME280;21561;55.654;37.592;2023-04-27T02:00:53;98607.78;;;8.91;79.94
35443;BME280;21561;55.654;37.592;2023-04-27T02:03:20;98612.06;;;8.93;79.09
35443;BME280;21561;55.654;37.592;2023-04-27T02:05:47;98611.94;;;9.01;79.63
35443;BME280;21561;55.654;37.592;2023-04-27T02:08:14;98610.00;;;9.12;85.34
35443;BME280;21561;55.654;37.592;2023-04-27T02:10:40;98606.31;;;9.26;82.73
35443;BME280;21561;55.654;37.592;2023-04-27T02:13:07;98604.38;;;9.37;80.47
35443;BME280;21561;55.654;37.592;2023-04-27T02:15:35;98617.19;;;9.45;78.98
35443;BME280;21561;55.654;37.592;2023-04-27T02:18:02;98614.50;;;9.49;78.19
35443;BME280;21561;55.654;37.592;2023-04-27T02:20:29;98617.19;;;9.45;78.02
35443;BME280;21561;55.654;37.592;2023-04-27T02:22:56;98620.78;;;9.38;78.28
35443;BME280;21561;55.654;37.592;2023-04-27T02:25:23;98629.56;;;9.29;77.54
35443;BME280;21561;55.654;37.592;2023-04-27T02:27:50;98624.53;;;9.21;77.35
35443;BME280;21561;55.654;37.592;2023-04-27T02:30:16;98622.00;;;9.16;76.95
35443;BME280;21561;55.654;37.592;2023-04-27T02:32:44;98618.59;;;9.14;77.28
35443;BME280;21561;55.654;37.592;2023-04-27T02:35:11;98632.38;;;9.15;77.39
35443;BME280;21561;55.654;37.592;2023-04-27T02:37:38;98635.03;;;9.12;77.94
35443;BME280;21561;55.654;37.592;2023-04-27T02:40:05;98633.38;;;9.08;77.44
35443;BME280;21561;55.654;37.592;2023-04-27T02:42:33;98633.44;;;9.05;77.82
35443;BME280;21561;55.654;37.592;2023-04-27T02:44:59;98630.03;;;9.03;78.39
35443;BME280;21561;55.654;37.592;2023-04-27T02:47:26;98638.66;;;9.02;78.75
35443;BME280;21561;55.654;37.592;2023-04-27T02:49:53;98639.47;;;9.04;78.29
35443;BME280;21561;55.654;37.592;2023-04-27T02:52:19;98638.50;;;9.11;77.48
35443;BME280;21561;55.654;37.592;2023-04-27T02:54:46;98645.28;;;9.18;76.81
35443;BME280;21561;55.654;37.592;2023-04-27T02:57:13;98645.09;;;9.27;77.31
35443;BME280;21561;55.654;37.592;2023-04-27T02:59:39;98662.25;;;9.34;77.77
35443;BME280;21561;55.654;37.592;2023-04-27T03:02:06;98662.25;;;9.34;77.65
35443;BME280;21561;55.654;37.592;2023-04-27T03:04:33;98657.84;;;9.38;76.85
35443;BME280;21561;55.654;37.592;2023-04-27T03:07:02;98662.81;;;9.50;76.86
35443;BME280;21561;55.654;37.592;2023-04-27T03:09:28;98662.78;;;9.53;76.97
35443;BME280;21561;55.654;37.592;2023-04-27T03:11:55;98664.53;;;9.51;77.31
35443;BME280;21561;55.654;37.592;2023-04-27T03:14:22;98665.34;;;9.55;77.01
35443;BME280;21561;55.654;37.592;2023-04-27T03:16:48;98679.06;;;9.60;76.95
35443;BME280;21561;55.654;37.592;2023-04-27T03:19:15;98668.75;;;9.57;76.77
35443;BME280;21561;55.654;37.592;2023-04-27T03:21:42;98680.00;;;9.54;76.95
35443;BME280;21561;55.654;37.592;2023-04-27T03:24:08;98680.94;;;9.52;76.84
35443;BME280;21561;55.654;37.592;2023-04-27T03:26:35;98680.94;;;9.52;77.57
35443;BME280;21561;55.654;37.592;2023-04-27T03:29:01;98675.56;;;9.61;77.04
35443;BME280;21561;55.654;37.592;2023-04-27T03:31:28;98670.97;;;9.75;76.92
35443;BME280;21561;55.654;37.592;2023-04-27T03:33:54;98675.16;;;9.83;76.49
35443;BME280;21561;55.654;37.592;2023-04-27T03:36:22;98681.16;;;9.85;76.61
35443;BME280;21561;55.654;37.592;2023-04-27T03:38:48;98683.72;;;9.86;76.67
35443;BME280;21561;55.654;37.592;2023-04-27T03:41:15;98680.22;;;9.89;77.33
35443;BME280;21561;55.654;37.592;2023-04-27T03:43:42;98688.69;;;9.97;76.93
35443;BME280;21561;55.654;37.592;2023-04-27T03:46:08;98690.34;;;10.01;77.28
35443;BME280;21561;55.654;37.592;2023-04-27T03:48:35;98691.97;;;10.07;76.79
35443;BME280;21561;55.654;37.592;2023-04-27T03:51:02;98697.09;;;10.08;77.04
35443;BME280;21561;55.654;37.592;2023-04-27T03:53:28;98691.84;;;10.11;77.05
35443;BME280;21561;55.654;37.592;2023-04-27T03:55:55;98691.59;;;10.24;76.44
35443;BME280;21561;55.654;37.592;2023-04-27T03:58:21;98685.22;;;10.40;76.00
35443;BME280;21561;55.654;37.592;2023-04-27T04:00:48;98685.81;;;10.53;76.21
35443;BME280;21561;55.654;37.592;2023-04-27T04:03:15;98702.03;;;10.63;75.96
35443;BME280;21561;55.654;37.592;2023-04-27T04:05:42;98703.66;;;10.68;79.06
35443;BME280;21561;55.654;37.592;2023-04-27T04:08:08;98702.59;;;10.77;79.38
35443;BME280;21561;55.654;37.592;2023-04-27T04:10:35;98688.50;;;10.87;77.46
35443;BME280;21561;55.654;37.592;2023-04-27T04:13:02;98706.47;;;10.97;74.91
35443;BME280;21561;55.654;37.592;2023-04-27T04:15:28;98703.69;;;11.03;75.21
35443;BME280;21561;55.654;37.592;2023-04-27T04:17:55;98705.31;;;11.07;77.50
35443;BME280;21561;55.654;37.592;2023-04-27T04:20:22;98706.88;;;11.14;77.38
35443;BME280;21561;55.654;37.592;2023-04-27T04:22:48;98705.81;;;11.23;76.12
35443;BME280;21561;55.654;37.592;2023-04-27T04:25:15;98711.66;;;11.33;75.48
35443;BME280;21561;55.654;37.592;2023-04-27T04:27:44;98712.28;;;11.41;74.16
35443;BME280;21561;55.654;37.592;2023-04-27T04:30:11;98715.59;;;11.48;74.09
35443;BME280;21561;55.654;37.592;2023-04-27T04:32:38;98715.38;;;11.55;74.26
35443;BME280;21561;55.654;37.592;2023-04-27T04:35:05;98716.84;;;11.65;74.11
35443;BME280;21561;55.654;37.592;2023-04-27T04:37:32;98719.19;;;11.75;74.43
35443;BME280;21561;55.654;37.592;2023-04-27T04:40:03;98714.53;;;11.88;74.29
35443;BME280;21561;55.654;37.592;2023-04-27T04:42:34;98721.09;;;12.02;74.55
35443;BME280;21561;55.654;37.592;2023-04-27T04:45:02;98717.22;;;12.17;73.63
35443;BME280;21561;55.654;37.592;2023-04-27T04:47:29;98720.38;;;12.27;73.64
35443;BME280;21561;55.654;37.592;2023-04-27T04:49:59;98710.53;;;12.38;72.25
35443;BME280;21561;55.654;37.592;2023-04-27T04:52:26;98720.75;;;12.45;72.93
35443;BME280;21561;55.654;37.592;2023-04-27T04:54:53;98712.78;;;12.51;72.43
35443;BME280;21561;55.654;37.592;2023-04-27T04:57:19;98719.44;;;12.59;71.73
35443;BME280;21561;55.654;37.592;2023-04-27T04:59:46;98720.13;;;12.66;71.75
35443;BME280;21561;55.654;37.592;2023-04-27T05:02:13;98718.13;;;12.74;71.63
35443;BME280;21561;55.654;37.592;2023-04-27T05:04:40;98724.84;;;12.82;71.71
35443;BME280;21561;55.654;37.592;2023-04-27T05:07:07;98716.81;;;12.89;71.55
35443;BME280;21561;55.654;37.592;2023-04-27T05:09:33;98720.97;;;12.95;71.10
35443;BME280;21561;55.654;37.592;2023-04-27T05:12:00;98726.00;;;13.01;69.68
35443;BME280;21561;55.654;37.592;2023-04-27T05:14:27;98736.19;;;13.07;69.80
35443;BME280;21561;55.654;37.592;2023-04-27T05:16:54;98733.34;;;13.15;70.08
35443;BME280;21561;55.654;37.592;2023-04-27T05:19:20;98728.75;;;13.23;70.03
35443;BME280;21561;55.654;37.592;2023-04-27T05:21:47;98731.13;;;13.29;69.90
35443;BME280;21561;55.654;37.592;2023-04-27T05:24:14;98737.78;;;13.40;69.84
35443;BME280;21561;55.654;37.592;2023-04-27T05:26:41;98733.22;;;13.46;69.44
35443;BME280;21561;55.654;37.592;2023-04-27T05:29:08;98733.00;;;13.52;66.46
35443;BME280;21561;55.654;37.592;2023-04-27T05:31:34;98736.22;;;13.61;67.05
35443;BME280;21561;55.654;37.592;2023-04-27T05:34:01;98734.31;;;13.66;65.19
35443;BME280;21561;55.654;37.592;2023-04-27T05:36:28;98740.09;;;13.74;65.98
35443;BME280;21561;55.654;37.592;2023-04-27T05:38:55;98741.50;;;13.84;66.35
35443;BME280;21561;55.654;37.592;2023-04-27T05:41:21;98730.78;;;13.92;64.67
35443;BME280;21561;55.654;37.592;2023-04-27T05:43:49;98736.53;;;14.02;64.20
35443;BME280;21561;55.654;37.592;2023-04-27T05:46:15;98731.00;;;14.11;65.85
35443;BME280;21561;55.654;37.592;2023-04-27T05:48:42;98742.81;;;14.21;66.29
35443;BME280;21561;55.654;37.592;2023-04-27T05:51:09;98744.16;;;14.31;66.56
35443;BME280;21561;55.654;37.592;2023-04-27T05:53:35;98742.13;;;14.40;66.20
35443;BME280;21561;55.654;37.592;2023-04-27T05:56:02;98737.44;;;14.48;65.77
35443;BME280;21561;55.654;37.592;2023-04-27T05:58:32;98740.69;;;14.55;66.09
35443;BME280;21561;55.654;37.592;2023-04-27T06:01:01;98734.41;;;14.60;63.47
35443;BME280;21561;55.654;37.592;2023-04-27T06:03:29;98743.59;;;14.70;65.13
35443;BME280;21561;55.654;37.592;2023-04-27T06:05:57;98732.00;;;14.78;63.38
35443;BME280;21561;55.654;37.592;2023-04-27T06:08:24;98723.88;;;14.85;61.59
35443;BME280;21561;55.654;37.592;2023-04-27T06:10:51;98722.78;;;14.91;60.34
35443;BME280;21561;55.654;37.592;2023-04-27T06:13:18;98717.31;;;14.97;58.91
35443;BME280;21561;55.654;37.592;2023-04-27T06:15:45;98709.22;;;15.03;58.00
35443;BME280;21561;55.654;37.592;2023-04-27T06:18:11;98741.97;;;15.12;59.57
35443;BME280;21561;55.654;37.592;2023-04-27T06:20:38;98701.88;;;15.13;56.75
35443;BME280;21561;55.654;37.592;2023-04-27T06:23:05;98722.63;;;15.16;57.65
35443;BME280;21561;55.654;37.592;2023-04-27T06:25:31;98691.22;;;15.18;55.17
35443;BME280;21561;55.654;37.592;2023-04-27T06:27:58;98730.19;;;15.24;56.86
35443;BME280;21561;55.654;37.592;2023-04-27T06:30:25;98719.47;;;15.30;56.21
35443;BME280;21561;55.654;37.592;2023-04-27T06:32:52;98746.22;;;15.37;58.46
35443;BME280;21561;55.654;37.592;2023-04-27T06:35:18;98746.81;;;15.43;58.16
35443;BME280;21561;55.654;37.592;2023-04-27T06:37:46;98732.44;;;15.54;57.74
35443;BME280;21561;55.654;37.592;2023-04-27T06:40:13;98746.88;;;15.62;58.45
35443;BME280;21561;55.654;37.592;2023-04-27T06:42:39;98688.13;;;15.71;54.38
35443;BME280;21561;55.654;37.592;2023-04-27T06:45:06;98723.50;;;15.80;55.94
35443;BME280;21561;55.654;37.592;2023-04-27T06:47:33;98725.78;;;15.88;56.36
35443;BME280;21561;55.654;37.592;2023-04-27T06:50:00;98743.78;;;15.95;57.52
35443;BME280;21561;55.654;37.592;2023-04-27T06:52:26;98740.06;;;16.01;57.11
35443;BME280;21561;55.654;37.592;2023-04-27T06:54:53;98749.59;;;16.02;57.01
35443;BME280;21561;55.654;37.592;2023-04-27T06:57:20;98725.25;;;16.00;55.73
35443;BME280;21561;55.654;37.592;2023-04-27T06:59:46;98734.75;;;16.02;56.04
35443;BME280;21561;55.654;37.592;2023-04-27T07:02:13;98716.34;;;16.04;54.74
35443;BME280;21561;55.654;37.592;2023-04-27T07:04:40;98731.66;;;16.13;55.40
35443;BME280;21561;55.654;37.592;2023-04-27T07:07:06;98692.91;;;16.21;53.13
35443;BME280;21561;55.654;37.592;2023-04-27T07:09:33;98669.97;;;16.27;52.53
35443;BME280;21561;55.654;37.592;2023-04-27T07:12:00;98749.22;;;16.30;54.87
35443;BME280;21561;55.654;37.592;2023-04-27T07:14:26;98665.16;;;16.36;52.52
35443;BME280;21561;55.654;37.592;2023-04-27T07:16:53;98725.03;;;16.44;54.10
35443;BME280;21561;55.654;37.592;2023-04-27T07:19:21;98693.31;;;16.50;52.43
35443;BME280;21561;55.654;37.592;2023-04-27T07:21:47;98674.63;;;16.58;51.67
35443;BME280;21561;55.654;37.592;2023-04-27T07:24:15;98574.13;;;16.60;48.11
35443;BME280;21561;55.654;37.592;2023-04-27T07:26:41;98693.31;;;16.69;51.04
35443;BME280;21561;55.654;37.592;2023-04-27T07:29:08;98689.50;;;16.76;51.03
35443;BME280;21561;55.654;37.592;2023-04-27T07:31:52;98725.75;;;16.86;52.78
35443;BME280;21561;55.654;37.592;2023-04-27T07:34:19;98676.59;;;16.91;50.54
35443;BME280;21561;55.654;37.592;2023-04-27T07:36:46;98757.84;;;16.91;53.25
35443;BME280;21561;55.654;37.592;2023-04-27T07:39:12;98725.53;;;16.90;52.58
35443;BME280;21561;55.654;37.592;2023-04-27T07:41:40;98713.34;;;16.89;51.36
35443;BME280;21561;55.654;37.592;2023-04-27T07:44:06;98720.13;;;16.93;51.64
35443;BME280;21561;55.654;37.592;2023-04-27T07:46:33;98729.72;;;16.94;51.58
35443;BME280;21561;55.654;37.592;2023-04-27T07:49:00;98716.13;;;16.86;51.01
35443;BME280;21561;55.654;37.592;2023-04-27T07:51:27;98730.75;;;16.90;51.31
35443;BME280;21561;55.654;37.592;2023-04-27T07:53:54;98708.75;;;16.94;51.29
35443;BME280;21561;55.654;37.592;2023-04-27T07:56:21;98755.91;;;16.94;52.45
35443;BME280;21561;55.654;37.592;2023-04-27T07:58:48;98752.22;;;16.98;52.38
35443;BME280;21561;55.654;37.592;2023-04-27T08:01:14;98677.00;;;17.01;49.71
35443;BME280;21561;55.654;37.592;2023-04-27T08:03:44;98702.28;;;17.02;50.18
35443;BME280;21561;55.654;37.592;2023-04-27T08:06:11;98654.03;;;17.06;48.72
35443;BME280;21561;55.654;37.592;2023-04-27T08:08:38;98678.72;;;17.02;48.91
35443;BME280;21561;55.654;37.592;2023-04-27T08:11:07;98700.66;;;16.99;49.56
35443;BME280;21561;55.654;37.592;2023-04-27T08:13:34;98743.00;;;17.09;50.65
35443;BME280;21561;55.654;37.592;2023-04-27T08:16:01;98681.63;;;17.13;48.97
35443;BME280;21561;55.654;37.592;2023-04-27T08:18:28;98710.16;;;17.19;50.01
35443;BME280;21561;55.654;37.592;2023-04-27T08:20:55;98757.06;;;17.25;51.26
35443;BME280;21561;55.654;37.592;2023-04-27T08:23:21;98715.56;;;17.33;49.69
35443;BME280;21561;55.654;37.592;2023-04-27T08:25:48;98698.31;;;17.47;48.92
35443;BME280;21561;55.654;37.592;2023-04-27T08:28:14;98667.06;;;17.60;48.67
35443;BME280;21561;55.654;37.592;2023-04-27T08:30:41;98691.91;;;17.70;49.08
35443;BME280;21561;55.654;37.592;2023-04-27T08:33:08;98729.06;;;17.78;50.40
35443;BME280;21561;55.654;37.592;2023-04-27T08:35:36;98589.00;;;17.81;46.09
35443;BME280;21561;55.654;37.592;2023-04-27T08:38:02;98615.25;;;17.81;46.66
35443;BME280;21561;55.654;37.592;2023-04-27T08:40:29;98583.16;;;17.75;46.10
35443;BME280;21561;55.654;37.592;2023-04-27T08:42:56;98693.97;;;17.81;48.23
35443;BME280;21561;55.654;37.592;2023-04-27T08:45:24;98682.53;;;17.82;48.49
35443;BME280;21561;55.654;37.592;2023-04-27T08:47:50;98689.97;;;17.73;47.98
35443;BME280;21561;55.654;37.592;2023-04-27T08:50:17;98722.34;;;17.72;48.82
35443;BME280;21561;55.654;37.592;2023-04-27T08:52:45;98750.31;;;17.73;49.72
35443;BME280;21561;55.654;37.592;2023-04-27T08:55:11;98690.56;;;17.79;47.15
35443;BME280;21561;55.654;37.592;2023-04-27T08:57:52;98670.28;;;17.82;47.70
35443;BME280;21561;55.654;37.592;2023-04-27T09:00:18;98725.31;;;17.84;48.08
35443;BME280;21561;55.654;37.592;2023-04-27T09:02:45;98684.63;;;17.75;47.88
35443;BME280;21561;55.654;37.592;2023-04-27T09:05:20;98734.50;;;17.75;49.16
35443;BME280;21561;55.654;37.592;2023-04-27T09:08:02;98756.66;;;17.87;49.35
35443;BME280;21561;55.654;37.592;2023-04-27T09:10:42;98740.88;;;18.04;49.16
35443;BME280;21561;55.654;37.592;2023-04-27T09:13:08;98729.97;;;18.12;48.79
35443;BME280;21561;55.654;37.592;2023-04-27T09:15:48;98718.81;;;18.24;48.62
35443;BME280;21561;55.654;37.592;2023-04-27T09:18:19;98687.34;;;18.40;47.78
35443;BME280;21561;55.654;37.592;2023-04-27T09:20:50;98668.34;;;18.51;47.13
35443;BME280;21561;55.654;37.592;2023-04-27T09:23:28;98648.25;;;18.66;47.15
35443;BME280;21561;55.654;37.592;2023-04-27T09:25:55;98623.00;;;18.79;45.21
35443;BME280;21561;55.654;37.592;2023-04-27T09:28:23;98647.66;;;18.93;47.04
35443;BME280;21561;55.654;37.592;2023-04-27T09:30:53;98530.25;;;19.07;43.56
35443;BME280;21561;55.654;37.592;2023-04-27T09:33:24;98529.59;;;19.18;44.22
35443;BME280;21561;55.654;37.592;2023-04-27T09:35:51;98515.44;;;19.21;43.35
35443;BME280;21561;55.654;37.592;2023-04-27T09:38:19;98497.59;;;19.26;41.97
35443;BME280;21561;55.654;37.592;2023-04-27T09:40:46;98493.34;;;19.23;43.17
35443;BME280;21561;55.654;37.592;2023-04-27T09:43:13;98457.59;;;19.21;42.66
35443;BME280;21561;55.654;37.592;2023-04-27T09:45:39;98468.00;;;19.08;41.92
35443;BME280;21561;55.654;37.592;2023-04-27T09:48:06;98406.97;;;19.03;40.42
35443;BME280;21561;55.654;37.592;2023-04-27T09:50:34;98458.22;;;18.96;41.19
35443;BME280;21561;55.654;37.592;2023-04-27T09:53:10;98495.06;;;18.80;41.96
35443;BME280;21561;55.654;37.592;2023-04-27T09:55:40;98517.63;;;18.68;42.82
35443;BME280;21561;55.654;37.592;2023-04-27T10:01:08;98612.94;;;18.56;44.56
35443;BME280;21561;55.654;37.592;2023-04-27T10:03:40;98633.84;;;18.73;43.81
35443;BME280;21561;55.654;37.592;2023-04-27T10:08:35;98541.59;;;18.94;42.09
35443;BME280;21561;55.654;37.592;2023-04-27T10:11:15;98521.81;;;19.02;42.64
35443;BME280;21561;55.654;37.592;2023-04-27T10:13:52;98487.72;;;19.15;42.05
35443;BME280;21561;55.654;37.592;2023-04-27T10:16:20;98387.53;;;19.61;39.33
35443;BME280;21561;55.654;37.592;2023-04-27T10:18:53;98325.59;;;20.49;38.79
35443;BME280;21561;55.654;37.592;2023-04-27T10:21:20;98173.50;;;21.36;36.71
35443;BME280;21561;55.654;37.592;2023-04-27T10:23:48;98267.84;;;22.39;38.24
35443;BME280;21561;55.654;37.592;2023-04-27T10:26:22;98050.16;;;23.16;33.94
35443;BME280;21561;55.654;37.592;2023-04-27T10:29:22;98103.13;;;23.77;35.19
35443;BME280;21561;55.654;37.592;2023-04-27T10:31:47;98220.53;;;24.30;36.80
35443;BME280;21561;55.654;37.592;2023-04-27T10:34:17;97908.94;;;23.48;32.21
35443;BME280;21561;55.654;37.592;2023-04-27T10:36:46;98073.00;;;22.84;34.77
35443;BME280;21561;55.654;37.592;2023-04-27T10:39:16;98086.25;;;22.29;33.65
35443;BME280;21561;55.654;37.592;2023-04-27T10:44:24;98207.53;;;22.10;36.31
35443;BME280;21561;55.654;37.592;2023-04-27T10:46:52;98209.31;;;21.51;36.05
35443;BME280;21561;55.654;37.592;2023-04-27T10:49:19;98334.00;;;21.05;38.49
35443;BME280;21561;55.654;37.592;2023-04-27T10:51:46;98423.25;;;20.73;39.06
35443;BME280;21561;55.654;37.592;2023-04-27T10:54:13;98484.88;;;20.17;40.26
35443;BME280;21561;55.654;37.592;2023-04-27T10:56:39;98574.91;;;19.67;41.58
35443;BME280;21561;55.654;37.592;2023-04-27T10:59:06;98652.09;;;19.22;42.66
35443;BME280;21561;55.654;37.592;2023-04-27T11:01:34;98718.53;;;18.78;44.30
35443;BME280;21561;55.654;37.592;2023-04-27T11:04:01;98743.88;;;18.63;43.50
35443;BME280;21561;55.654;37.592;2023-04-27T11:06:29;98743.19;;;18.60;43.12
35443;BME280;21561;55.654;37.592;2023-04-27T11:08:57;98774.97;;;18.55;43.48
35443;BME280;21561;55.654;37.592;2023-04-27T11:11:24;98817.56;;;18.44;44.52
35443;BME280;21561;55.654;37.592;2023-04-27T11:13:51;98816.31;;;18.51;44.01
35443;BME280;21561;55.654;37.592;2023-04-27T11:16:18;98850.03;;;18.43;45.57
35443;BME280;21561;55.654;37.592;2023-04-27T11:18:45;98843.31;;;18.71;44.59
35443;BME280;21561;55.654;37.592;2023-04-27T11:21:15;98837.06;;;18.74;44.62
35443;BME280;21561;55.654;37.592;2023-04-27T11:23:43;98835.16;;;18.60;44.48
35443;BME280;21561;55.654;37.592;2023-04-27T11:31:08;98844.56;;;18.13;44.91
35443;BME280;21561;55.654;37.592;2023-04-27T11:33:36;98850.25;;;18.21;45.03
35443;BME280;21561;55.654;37.592;2023-04-27T11:36:14;98841.53;;;18.38;44.42
35443;BME280;21561;55.654;37.592;2023-04-27T11:38:41;98777.34;;;19.39;43.44
35443;BME280;21561;55.654;37.592;2023-04-27T11:41:08;98569.34;;;20.41;38.98
35443;BME280;21561;55.654;37.592;2023-04-27T11:43:35;98503.81;;;21.15;39.06
35443;BME280;21561;55.654;37.592;2023-04-27T11:46:03;98427.41;;;21.89;39.07
35443;BME280;21561;55.654;37.592;2023-04-27T11:48:30;98320.72;;;22.39;36.92
35443;BME280;21561;55.654;37.592;2023-04-27T11:50:57;98351.50;;;22.51;36.37
35443;BME280;21561;55.654;37.592;2023-04-27T11:53:34;98409.69;;;22.96;38.49
35443;BME280;21561;55.654;37.592;2023-04-27T11:56:02;98304.34;;;23.35;37.05
35443;BME280;21561;55.654;37.592;2023-04-27T11:58:34;98263.16;;;23.75;36.45
35443;BME280;21561;55.654;37.592;2023-04-27T12:01:04;98228.22;;;23.60;34.57
35443;BME280;21561;55.654;37.592;2023-04-27T12:03:32;98235.75;;;22.77;35.35
35443;BME280;21561;55.654;37.592;2023-04-27T12:05:59;98261.38;;;22.65;35.85
35443;BME280;21561;55.654;37.592;2023-04-27T12:08:46;98343.69;;;22.95;37.73
35443;BME280;21561;55.654;37.592;2023-04-27T12:11:12;98239.53;;;23.51;35.21
35443;BME280;21561;55.654;37.592;2023-04-27T12:13:39;98254.28;;;24.28;36.16
35443;BME280;21561;55.654;37.592;2023-04-27T12:16:06;98269.34;;;24.48;36.23
35443;BME280;21561;55.654;37.592;2023-04-27T12:18:32;98149.88;;;24.09;34.84
35443;BME280;21561;55.654;37.592;2023-04-27T12:20:59;98127.28;;;24.05;33.18
35443;BME280;21561;55.654;37.592;2023-04-27T12:23:28;98114.81;;;24.27;32.42
35443;BME280;21561;55.654;37.592;2023-04-27T12:25:55;98182.63;;;24.80;34.87
35443;BME280;21561;55.654;37.592;2023-04-27T12:28:22;98221.66;;;25.18;35.40
35443;BME280;21561;55.654;37.592;2023-04-27T12:30:48;98065.53;;;25.70;32.96
35443;BME280;21561;55.654;37.592;2023-04-27T12:33:15;98018.78;;;25.78;32.89
35443;BME280;21561;55.654;37.592;2023-04-27T12:35:42;98120.97;;;25.93;34.57
35443;BME280;21561;55.654;37.592;2023-04-27T12:38:09;98076.25;;;26.16;33.31
35443;BME280;21561;55.654;37.592;2023-04-27T12:40:35;97988.53;;;26.52;30.39
35443;BME280;21561;55.654;37.592;2023-04-27T12:43:02;97996.63;;;26.78;32.94
35443;BME280;21561;55.654;37.592;2023-04-27T12:45:29;97830.97;;;26.76;30.47
35443;BME280;21561;55.654;37.592;2023-04-27T12:47:56;97806.03;;;26.77;27.89
35443;BME280;21561;55.654;37.592;2023-04-27T12:50:29;97904.78;;;27.27;30.69
35443;BME280;21561;55.654;37.592;2023-04-27T12:52:56;97869.25;;;27.52;30.73
35443;BME280;21561;55.654;37.592;2023-04-27T12:55:22;97830.03;;;27.87;29.43
35443;BME280;21561;55.654;37.592;2023-04-27T12:57:58;97755.06;;;28.23;25.53
35443;BME280;21561;55.654;37.592;2023-04-27T13:00:25;97770.22;;;28.23;27.54
35443;BME280;21561;55.654;37.592;2023-04-27T13:02:52;97756.41;;;27.86;28.57
35443;BME280;21561;55.654;37.592;2023-04-27T13:05:19;97624.22;;;27.36;26.06
35443;BME280;21561;55.654;37.592;2023-04-27T13:07:47;97632.00;;;27.13;26.92